Al Udeid Air Base
OTBH : now visible

Airfield :











YOU CAN JOIN US ON...

 
LOGIN :

Register | Disclaimer

   EN    FR    IT 

 









Legend :    VFR   Marginal VFR   IFR   Intensive IFR   Very Intensive IFR
Visi :
Ceiling :
>= 8 km
>= 3000ft
5 to 8 km
1000 to 3000 ft
1500m to 5 km
500 to 1000 ft
800 to 1500m
200 to 500 ft
< 800m
< 200 ft
Symbols :   Thunderstorms  Fog  Heavy snow  Heavy precipitations  Wind > 20 kt






- Airport Elevation : 130 ft
- IATA code : IUD


OTBH - Al Udeid Air Base

CURRENT METAR :
  • 241756Z 08006KT 9000 HZ CLR 23/15 A2995 RMK AO2A SLP144 WND/ALSTG/SLP DATA ESTMD T02270149 10287 20227 53002

EXPIRED METARs :
  • 241656Z 07008KT 9000 HZ CLR 23/16 A2994 RMK AO2A SLP141 WND/ALSTG/SLP DATA ESTMD T02310159
  • 241556Z 06009KT 9000 HZ CLR 24/16 A2993 RMK AO2A SLP137 WND/ALSTG/SLP DATA ESTMD T02370157

TAF TAF OTBH
Valid from the 24 at 16:00 until the 25 at 22:00 UTC


241600Z 2416/2522 12012KT 9000 BR SKC QNH2991INS
BECMG 2506/2507 14012G18KT 9999 NSW SKC QNH2983INS
BECMG 2521/2522 33020G30KT 8000 DU SKC 510003 QNH2980INS TX28/2511Z TN18/2503Z



MET'MAP, your aeronautical weather chart ! - Copyright ORBIFLY December 2007 - Disclaimer

ORBIFLY MET'MAP TEAM :

Programming & Development : Alexandra Zaïnal
Concept & original design : Baudouin d'Aumeries
Assistance for programming : Marc-Olivier Méhu
Technical & hardware support : Manuel Goepfert

Contact : metmap@orbifly.com




SOURCES & CREDITS :

   NOAA       Earth
Advisory